BBC Kwiatkowski — V2DT5 — position and weather

sailwx.info

Track history (hours):
 
Tides and Currents Weather Stations Pressure Air Temp Water Temp Dewpoint Dewpoint Depression Visibility Wind Speed Wind Dir Waves Ship Positions

BBC Kwiatkowski

Last reported at 2017-Nov-11 09:46 UTC. Time now 2017-Nov-25 00:23 UTC.
Position N 34°36' E 134°56'.
Warning: this ship's position is 13 days out of date.

Length 122 m; draft 5.4 m.

Type: Ship. MMSI: 305240000.

Date/timePositionNaut miles runAvg speedWind from/ knotsBaromVisibWave heightAir tempDewpointWater temp
2017-Nov-11 09:46N 34°36' E 134°56'310.8
2017-Nov-11 09:30N 34°38' E 134°59'510.8
2017-Nov-11 09:00N 34°36' E 135°05'611.5
2017-Nov-11 08:30N 34°37' E 135°12'511.1
2017-Nov-11 08:00N 34°39' E 135°18'4 7.1
2017-Nov-11 07:30N 34°42' E 135°17'0 0.1
2017-Nov-11 07:00N 34°42' E 135°17'0 0.0
2017-Nov-11 06:30N 34°42' E 135°17'0 0.0
2017-Nov-11 06:00N 34°42' E 135°17'0 0.0
2017-Nov-11 05:30N 34°42' E 135°17'0 0.0
2017-Nov-11 05:00N 34°42' E 135°17'0 0.0
2017-Nov-11 04:30N 34°42' E 135°17'0 0.0
2017-Nov-11 04:00N 34°42' E 135°17'0 0.0
2017-Nov-11 03:30N 34°42' E 135°17'0 0.0
2017-Nov-11 03:00N 34°42' E 135°17'0 0.0
2017-Nov-11 02:24N 34°42' E 135°17'0 0.0
2017-Nov-11 01:54N 34°42' E 135°17'0 0.0
2017-Nov-11 01:30N 34°42' E 135°17'0 0.0
2017-Nov-11 01:00N 34°42' E 135°17'0 0.0
2017-Nov-11 00:30N 34°42' E 135°17'0 0.9
2017-Nov-11 00:01N 34°42' E 135°17'3 6.3
2017-Nov-10 23:31N 34°39' E 135°18'611.0
2017-Nov-10 23:01N 34°34' E 135°15'5 9.6
2017-Nov-10 22:31N 34°31' E 135°10'5 9.0
2017-Nov-10 22:00N 34°29' E 135°05'510.0
2017-Nov-10 21:30N 34°25' E 135°03'510.1
2017-Nov-10 21:00N 34°20' E 135°00'5 9.0
2017-Nov-10 20:30N 34°16' E 134°59'4 8.8
2017-Nov-10 20:00N 34°11' E 134°60'5 9.2
2017-Nov-10 19:30N 34°07' E 134°59'5 9.3
2017-Nov-10 19:00N 34°02' E 134°58'5 8.9
2017-Nov-10 18:30N 33°58' E 134°57'510.0
2017-Nov-10 17:58N 33°53' E 134°57'  
Track history (hours):
 
Tides and Currents Weather Stations Pressure Air Temp Water Temp Dewpoint Dewpoint Depression Visibility Wind Speed Wind Dir Waves Ship Positions

BBC Kwiatkowski

Last reported at 2017-Nov-11 09:46 UTC. Time now 2017-Nov-25 00:23 UTC.
Position N 34°36' E 134°56'.
Warning: this ship's position is 13 days out of date.

Length 122 m; draft 5.4 m.

Type: Ship. MMSI: 305240000.

Date/timePositionNaut miles runAvg speedWind from/ knotsBaromVisibWave heightAir tempDewpointWater temp
2017-Nov-11 09:46N 34°36' E 134°56'310.8
2017-Nov-11 09:30N 34°38' E 134°59'510.8
2017-Nov-11 09:00N 34°36' E 135°05'611.5
2017-Nov-11 08:30N 34°37' E 135°12'511.1
2017-Nov-11 08:00N 34°39' E 135°18'4 7.1
2017-Nov-11 07:30N 34°42' E 135°17'0 0.1
2017-Nov-11 07:00N 34°42' E 135°17'0 0.0
2017-Nov-11 06:30N 34°42' E 135°17'0 0.0
2017-Nov-11 06:00N 34°42' E 135°17'0 0.0
2017-Nov-11 05:30N 34°42' E 135°17'0 0.0
2017-Nov-11 05:00N 34°42' E 135°17'0 0.0
2017-Nov-11 04:30N 34°42' E 135°17'0 0.0
2017-Nov-11 04:00N 34°42' E 135°17'0 0.0
2017-Nov-11 03:30N 34°42' E 135°17'0 0.0
2017-Nov-11 03:00N 34°42' E 135°17'0 0.0
2017-Nov-11 02:24N 34°42' E 135°17'0 0.0
2017-Nov-11 01:54N 34°42' E 135°17'0 0.0
2017-Nov-11 01:30N 34°42' E 135°17'0 0.0
2017-Nov-11 01:00N 34°42' E 135°17'0 0.0
2017-Nov-11 00:30N 34°42' E 135°17'0 0.9
2017-Nov-11 00:01N 34°42' E 135°17'3 6.3
2017-Nov-10 23:31N 34°39' E 135°18'611.0
2017-Nov-10 23:01N 34°34' E 135°15'5 9.6
2017-Nov-10 22:31N 34°31' E 135°10'5 9.0
2017-Nov-10 22:00N 34°29' E 135°05'510.0
2017-Nov-10 21:30N 34°25' E 135°03'510.1
2017-Nov-10 21:00N 34°20' E 135°00'5 9.0
2017-Nov-10 20:30N 34°16' E 134°59'4 8.8
2017-Nov-10 20:00N 34°11' E 134°60'5 9.2
2017-Nov-10 19:30N 34°07' E 134°59'5 9.3
2017-Nov-10 19:00N 34°02' E 134°58'5 8.9
2017-Nov-10 18:30N 33°58' E 134°57'510.0
2017-Nov-10 17:58N 33°53' E 134°57'  

Dump ship's entire track history